createdAt,value
2022-12-14T00:01:49.693Z,10.70
2022-12-14T00:04:19.144Z,12.73
2022-12-14T00:06:46.092Z,10.90
2022-12-14T00:09:17.846Z,11.20
2022-12-14T00:11:44.518Z,10.23
2022-12-14T00:14:11.255Z,10.50
2022-12-14T00:16:38.019Z,10.63
2022-12-14T00:19:05.716Z,10.00
2022-12-14T00:21:35.038Z,10.43
2022-12-14T00:24:02.299Z,10.60
2022-12-14T00:26:31.269Z,9.73
2022-12-14T00:29:04.135Z,10.70
2022-12-14T00:31:33.408Z,10.70
2022-12-14T00:34:01.370Z,10.60
2022-12-14T00:36:31.573Z,10.53
2022-12-14T00:38:58.744Z,10.40
2022-12-14T00:41:31.085Z,10.77
2022-12-14T00:43:57.733Z,10.70
2022-12-14T00:46:26.915Z,10.47
2022-12-14T00:48:56.021Z,12.52
2022-12-14T00:51:24.826Z,11.20
2022-12-14T00:53:51.582Z,10.77
2022-12-14T00:56:20.681Z,10.40
2022-12-14T00:58:54.042Z,9.90
2022-12-14T01:01:23.475Z,12.03
2022-12-14T01:03:50.403Z,10.80
2022-12-14T01:06:23.001Z,10.13
2022-12-14T01:08:51.832Z,10.60
2022-12-14T01:11:18.574Z,10.37
2022-12-14T01:13:49.613Z,10.13
2022-12-14T01:16:19.281Z,10.37
2022-12-14T01:18:45.966Z,10.23
2022-12-14T01:21:22.000Z,10.37
2022-12-14T01:23:54.874Z,10.53
2022-12-14T01:26:24.665Z,10.80
2022-12-14T01:28:53.311Z,11.17
2022-12-14T01:31:22.296Z,10.63
2022-12-14T01:33:49.263Z,10.17
2022-12-14T01:36:18.791Z,9.90
2022-12-14T01:38:46.210Z,10.47
2022-12-14T01:41:32.734Z,10.70
2022-12-14T01:44:27.932Z,11.82
2022-12-14T01:47:07.382Z,10.77
2022-12-14T01:49:40.985Z,10.37
2022-12-14T01:52:26.084Z,10.77
2022-12-14T01:55:09.447Z,10.57
2022-12-14T01:57:53.919Z,10.70
2022-12-14T02:00:21.391Z,10.73
2022-12-14T02:03:00.525Z,10.17
2022-12-14T02:05:28.291Z,9.70
2022-12-14T02:08:00.326Z,10.83
2022-12-14T02:10:30.343Z,10.40
2022-12-14T02:13:11.971Z,10.77
2022-12-14T02:15:41.997Z,11.40
2022-12-14T02:18:16.472Z,10.30
2022-12-14T02:21:05.902Z,11.33
2022-12-14T02:23:52.844Z,10.83
2022-12-14T02:27:00.153Z,10.63
2022-12-14T02:29:32.722Z,12.80
2022-12-14T02:32:20.755Z,11.57
2022-12-14T02:35:10.932Z,10.70
2022-12-14T02:37:57.128Z,10.87
2022-12-14T02:40:30.558Z,10.90
2022-12-14T02:42:57.159Z,11.17
2022-12-14T02:45:29.183Z,10.47
2022-12-14T02:48:01.535Z,10.40
2022-12-14T02:50:55.731Z,10.10
2022-12-14T02:53:36.461Z,11.00
2022-12-14T02:56:10.726Z,11.13
2022-12-14T02:58:44.167Z,12.27
2022-12-14T03:01:18.933Z,11.13
2022-12-14T03:03:50.925Z,11.23
2022-12-14T03:06:26.487Z,10.60
2022-12-14T03:09:17.441Z,10.40
2022-12-14T03:11:44.029Z,10.77
2022-12-14T03:14:36.798Z,10.73
2022-12-14T03:17:26.774Z,10.43
2022-12-14T03:19:57.778Z,10.90
2022-12-14T03:22:33.479Z,11.53
2022-12-14T03:25:08.769Z,10.30
2022-12-14T03:27:40.063Z,10.80
2022-12-14T03:30:13.605Z,10.23
2022-12-14T03:32:48.380Z,10.87
2022-12-14T03:35:29.172Z,10.00
2022-12-14T03:38:15.292Z,11.03
2022-12-14T03:41:11.204Z,11.03
2022-12-14T03:44:01.197Z,10.83
2022-12-14T03:46:41.369Z,10.87
2022-12-14T03:49:19.952Z,11.20
2022-12-14T03:52:08.208Z,11.60
2022-12-14T03:55:09.995Z,10.93
2022-12-14T03:57:58.666Z,11.10
2022-12-14T04:00:27.114Z,10.77
2022-12-14T04:03:28.508Z,11.13
2022-12-14T04:06:13.637Z,11.07
2022-12-14T04:08:52.593Z,10.37
2022-12-14T04:11:40.315Z,9.87
2022-12-14T04:14:36.180Z,10.53
2022-12-14T04:17:26.142Z,10.90
2022-12-14T04:20:07.585Z,10.90
2022-12-14T04:22:39.700Z,11.20
2022-12-14T04:25:44.426Z,11.37
2022-12-14T04:29:13.609Z,10.80
2022-12-14T04:31:44.986Z,11.37
2022-12-14T04:34:20.708Z,11.80
2022-12-14T04:36:55.930Z,11.27
2022-12-14T04:39:40.493Z,11.60
2022-12-14T04:42:09.831Z,11.53
2022-12-14T04:44:42.836Z,11.17
2022-12-14T04:47:13.506Z,11.83
2022-12-14T04:49:45.316Z,10.90
2022-12-14T04:52:32.983Z,12.07
2022-12-14T04:55:08.546Z,12.10
2022-12-14T04:57:42.319Z,11.73
2022-12-14T05:00:12.793Z,12.37
2022-12-14T05:02:39.544Z,12.43
2022-12-14T05:05:23.952Z,12.77
2022-12-14T05:08:08.263Z,11.47
2022-12-14T05:11:09.831Z,12.20
2022-12-14T05:13:50.258Z,12.00
2022-12-14T05:16:21.077Z,10.67
2022-12-14T05:18:50.512Z,11.70
2022-12-14T05:21:35.803Z,13.50
2022-12-14T05:24:04.043Z,12.13
2022-12-14T05:26:34.107Z,12.30
2022-12-14T05:29:00.816Z,12.13
2022-12-14T05:31:27.550Z,11.60
2022-12-14T05:33:56.459Z,12.57
2022-12-14T05:36:23.232Z,12.40
2022-12-14T05:38:50.084Z,13.30
2022-12-14T05:41:21.083Z,12.40
2022-12-14T05:43:49.998Z,11.63
2022-12-14T05:46:19.156Z,12.57
2022-12-14T05:48:49.609Z,12.37
2022-12-14T05:51:16.772Z,12.13
2022-12-14T05:53:46.314Z,12.40
2022-12-14T05:56:13.297Z,12.10
2022-12-14T05:58:40.407Z,12.23
2022-12-14T06:01:15.455Z,12.60
2022-12-14T06:03:45.523Z,12.10
2022-12-14T06:06:15.569Z,12.23
2022-12-14T06:08:47.214Z,12.83
2022-12-14T06:11:24.364Z,12.27
2022-12-14T06:13:53.850Z,13.00
2022-12-14T06:16:26.580Z,13.30
2022-12-14T06:18:57.966Z,12.03
2022-12-14T06:21:33.045Z,11.67
2022-12-14T06:24:00.286Z,12.43
2022-12-14T06:26:28.734Z,12.70
2022-12-14T06:28:56.306Z,11.67
2022-12-14T06:31:29.074Z,12.47
2022-12-14T06:34:01.733Z,12.57
2022-12-14T06:36:31.415Z,11.90
2022-12-14T06:39:03.934Z,12.40
2022-12-14T06:41:33.681Z,12.37
2022-12-14T06:44:10.739Z,13.00
2022-12-14T06:46:37.943Z,12.30
2022-12-14T06:49:06.028Z,12.33
2022-12-14T06:51:38.171Z,12.93
2022-12-14T06:54:04.850Z,13.63
2022-12-14T06:56:34.433Z,13.30
2022-12-14T06:59:01.124Z,13.60
2022-12-14T07:01:29.133Z,13.50
2022-12-14T07:03:58.164Z,13.47
2022-12-14T07:06:26.616Z,14.20
2022-12-14T07:08:57.878Z,13.30
2022-12-14T07:11:28.104Z,13.27
2022-12-14T07:13:55.451Z,13.20
2022-12-14T07:16:29.247Z,13.40
2022-12-14T07:18:56.690Z,15.65
2022-12-14T07:21:26.253Z,14.00
2022-12-14T07:23:56.505Z,14.87
2022-12-14T07:26:26.271Z,13.70
2022-12-14T07:28:53.581Z,12.97
2022-12-14T07:31:26.007Z,14.13
2022-12-14T07:33:57.863Z,14.73
2022-12-14T07:36:26.748Z,14.07
2022-12-14T07:38:56.208Z,14.23
2022-12-14T07:41:29.358Z,14.63
2022-12-14T07:43:57.715Z,14.17
2022-12-14T07:46:28.111Z,13.77
2022-12-14T07:48:57.629Z,14.43
2022-12-14T07:51:30.004Z,13.83
2022-12-14T07:53:59.054Z,13.63
2022-12-14T07:56:29.052Z,13.60
2022-12-14T07:58:57.086Z,14.17
2022-12-14T08:01:32.518Z,15.27
2022-12-14T08:04:17.188Z,14.63
2022-12-14T08:06:46.800Z,14.03
2022-12-14T08:09:14.219Z,14.33
2022-12-14T08:11:43.714Z,14.53
2022-12-14T08:14:19.745Z,10.50
2022-12-14T08:16:47.943Z,10.50
2022-12-14T08:19:15.212Z,8.47
2022-12-14T08:21:42.027Z,7.13
2022-12-14T08:24:11.811Z,8.13
2022-12-14T08:26:39.076Z,11.20
2022-12-14T08:29:06.299Z,12.07
2022-12-14T08:31:33.849Z,11.63
2022-12-14T08:34:01.783Z,12.53
2022-12-14T08:36:34.103Z,12.68
2022-12-14T08:39:03.403Z,12.47
2022-12-14T08:41:32.337Z,13.23
2022-12-14T08:44:03.116Z,13.90
2022-12-14T08:46:32.913Z,13.63
2022-12-14T08:49:00.016Z,14.67
2022-12-14T08:51:29.506Z,13.40
2022-12-14T08:53:58.509Z,13.77
2022-12-14T08:56:29.265Z,15.40
2022-12-14T08:58:56.838Z,14.47
2022-12-14T09:01:32.263Z,15.67
2022-12-14T09:04:06.048Z,15.03
2022-12-14T09:06:40.728Z,15.20
2022-12-14T09:09:16.008Z,14.70
2022-12-14T09:11:44.044Z,15.70
2022-12-14T09:14:10.883Z,16.10
2022-12-14T09:16:37.620Z,16.07
2022-12-14T09:19:04.523Z,15.27
2022-12-14T09:21:31.632Z,16.77
2022-12-14T09:24:03.077Z,16.60
2022-12-14T09:26:29.945Z,16.87
2022-12-14T09:28:57.861Z,16.67
2022-12-14T09:31:26.876Z,10.20
2022-12-14T09:33:58.549Z,14.80
2022-12-14T09:36:28.013Z,13.77
2022-12-14T09:38:55.443Z,15.80
2022-12-14T09:41:34.365Z,15.40
2022-12-14T09:44:24.820Z,14.60
2022-12-14T09:46:57.383Z,14.73
2022-12-14T09:49:26.791Z,15.43
2022-12-14T09:51:56.276Z,16.50
2022-12-14T09:54:27.791Z,15.90
2022-12-14T09:57:23.174Z,15.90
2022-12-14T09:59:52.782Z,16.07
2022-12-14T10:02:31.697Z,18.58
2022-12-14T10:05:11.290Z,16.20
2022-12-14T10:07:55.418Z,17.73
2022-12-14T10:10:31.650Z,16.20
2022-12-14T10:13:20.997Z,16.37
2022-12-14T10:16:04.630Z,18.58
2022-12-14T10:21:39.122Z,16.50
2022-12-14T10:24:07.273Z,16.43
2022-12-14T10:26:41.999Z,17.10
2022-12-14T10:29:17.597Z,16.67
2022-12-14T10:31:50.131Z,16.17
2022-12-14T10:34:29.692Z,16.70
2022-12-14T10:37:13.748Z,16.10
2022-12-14T10:39:53.697Z,8.30
2022-12-14T10:42:42.383Z,11.93
2022-12-14T10:45:42.759Z,15.97
2022-12-14T10:48:46.423Z,14.67
2022-12-14T10:51:13.149Z,14.37
2022-12-14T10:54:02.942Z,13.80
2022-12-14T10:56:35.212Z,13.57
2022-12-14T10:59:26.547Z,14.50
2022-12-14T11:02:05.289Z,14.27
2022-12-14T11:04:54.539Z,13.43
2022-12-14T11:07:24.586Z,15.80
2022-12-14T11:09:51.848Z,15.30
2022-12-14T11:12:27.959Z,15.43
2022-12-14T11:15:05.510Z,15.63
2022-12-14T11:17:37.041Z,15.83
2022-12-14T11:20:24.275Z,16.23
2022-12-14T11:22:53.154Z,14.73
2022-12-14T11:25:37.829Z,15.93
2022-12-14T11:28:22.976Z,17.43
2022-12-14T11:31:14.600Z,16.60
2022-12-14T11:33:49.930Z,16.30
2022-12-14T11:36:28.510Z,15.73
2022-12-14T11:39:04.661Z,16.00
2022-12-14T11:41:40.802Z,16.67
2022-12-14T11:44:16.544Z,16.37
2022-12-14T11:46:45.035Z,16.40
2022-12-14T11:49:37.648Z,17.77
2022-12-14T11:52:15.471Z,15.93
2022-12-14T11:54:49.951Z,16.73
2022-12-14T11:57:23.049Z,16.33
2022-12-14T12:00:00.948Z,16.00
2022-12-14T12:02:35.224Z,17.50
2022-12-14T12:05:18.527Z,16.37
2022-12-14T12:07:51.186Z,18.27
2022-12-14T12:10:23.691Z,16.90
2022-12-14T12:12:55.412Z,18.07
2022-12-14T12:15:49.853Z,15.97
2022-12-14T12:18:30.453Z,17.93
2022-12-14T12:20:59.801Z,17.33
2022-12-14T12:23:38.066Z,17.83
2022-12-14T12:26:15.009Z,18.17
2022-12-14T12:28:48.723Z,18.27
2022-12-14T12:31:25.760Z,18.63
2022-12-14T12:34:06.381Z,19.60
2022-12-14T12:36:33.413Z,19.83
2022-12-14T12:39:06.908Z,19.53
2022-12-14T12:41:48.053Z,19.13
2022-12-14T12:44:58.174Z,18.50
2022-12-14T12:47:47.532Z,19.10
2022-12-14T12:50:18.734Z,22.55
2022-12-14T12:53:03.707Z,19.83
2022-12-14T12:55:35.796Z,20.10
2022-12-14T12:58:04.935Z,18.27
2022-12-14T13:00:33.567Z,19.67
2022-12-14T13:03:08.792Z,18.53
2022-12-14T13:05:47.371Z,18.00
2022-12-14T13:08:20.944Z,18.57
2022-12-14T13:13:42.777Z,18.10
2022-12-14T13:16:22.992Z,18.10
2022-12-14T13:19:40.547Z,18.63
2022-12-14T13:21:55.010Z,19.77
2022-12-14T13:24:24.016Z,17.93
2022-12-14T13:27:18.838Z,20.67
2022-12-14T13:30:03.983Z,22.33
2022-12-14T13:33:01.690Z,19.20
2022-12-14T13:35:28.451Z,19.47
2022-12-14T13:38:33.730Z,20.40
2022-12-14T13:41:05.855Z,17.77
2022-12-14T13:43:32.454Z,22.02
2022-12-14T13:46:17.256Z,18.63
2022-12-14T13:48:48.211Z,18.63
2022-12-14T13:51:41.720Z,18.83
2022-12-14T13:54:21.580Z,18.30
2022-12-14T13:57:01.378Z,18.93
2022-12-14T13:59:27.994Z,17.93
2022-12-14T14:02:02.897Z,17.10
2022-12-14T14:04:36.461Z,18.77
2022-12-14T14:07:40.368Z,17.97
2022-12-14T14:10:28.935Z,18.80
2022-12-14T14:12:56.470Z,17.73
2022-12-14T14:16:19.327Z,18.30
2022-12-14T14:18:46.219Z,18.00
2022-12-14T14:21:12.827Z,18.13
2022-12-14T14:23:58.773Z,19.38
2022-12-14T14:26:35.398Z,17.13
2022-12-14T14:29:28.512Z,17.60
2022-12-14T14:32:24.839Z,16.43
2022-12-14T14:34:51.868Z,16.47
2022-12-14T14:37:27.220Z,15.97
2022-12-14T14:40:21.946Z,16.60
2022-12-14T14:43:23.838Z,15.97
2022-12-14T14:45:53.363Z,16.23
2022-12-14T14:48:35.430Z,16.90
2022-12-14T14:51:11.203Z,17.23
2022-12-14T14:53:41.697Z,15.80
2022-12-14T14:56:31.667Z,16.53
2022-12-14T14:59:17.085Z,16.40
2022-12-14T15:01:56.247Z,14.90
2022-12-14T15:04:29.759Z,15.70
2022-12-14T15:07:08.344Z,16.20
2022-12-14T15:10:17.687Z,15.57
2022-12-14T15:12:53.059Z,14.13
2022-12-14T15:15:43.158Z,13.27
2022-12-14T15:18:33.053Z,13.73
2022-12-14T15:21:05.490Z,13.63
2022-12-14T15:23:49.613Z,14.27
2022-12-14T15:26:27.441Z,13.43
2022-12-14T15:29:04.576Z,13.43
2022-12-14T15:31:42.001Z,13.03
2022-12-14T15:34:18.966Z,12.90
2022-12-14T15:36:48.812Z,13.33
2022-12-14T15:39:28.689Z,12.80
2022-12-14T15:42:11.655Z,11.90
2022-12-14T15:44:43.686Z,12.07
2022-12-14T15:47:22.712Z,13.10
2022-12-14T15:49:56.089Z,11.73
2022-12-14T15:52:31.368Z,12.33
2022-12-14T15:54:59.219Z,12.60
2022-12-14T15:57:28.592Z,12.17
2022-12-14T15:59:58.419Z,13.57
2022-12-14T16:02:31.783Z,12.00
2022-12-14T16:05:02.213Z,12.23
2022-12-14T16:07:38.661Z,11.87
2022-12-14T16:10:23.987Z,10.70
2022-12-14T16:12:55.491Z,11.55
2022-12-14T16:15:25.607Z,11.20
2022-12-14T16:18:02.151Z,11.73
2022-12-14T16:20:35.948Z,11.03
2022-12-14T16:23:14.339Z,12.07
2022-12-14T16:25:58.862Z,12.10
2022-12-14T16:28:33.510Z,11.97
2022-12-14T16:31:07.089Z,12.20
2022-12-14T16:33:38.911Z,12.20
2022-12-14T16:36:20.731Z,12.83
2022-12-14T16:39:23.765Z,12.57
2022-12-14T16:42:00.519Z,15.63
2022-12-14T16:44:33.084Z,14.83
2022-12-14T16:47:02.575Z,14.57
2022-12-14T16:49:35.751Z,14.63
2022-12-14T16:52:14.167Z,15.40
2022-12-14T16:54:41.116Z,15.35
2022-12-14T16:57:17.792Z,14.93
2022-12-14T16:59:46.555Z,13.20
2022-12-14T17:02:31.485Z,14.60
2022-12-14T17:05:12.805Z,13.40
2022-12-14T17:07:42.245Z,15.35
2022-12-14T17:10:21.358Z,14.43
2022-12-14T17:12:49.093Z,14.77
2022-12-14T17:15:20.879Z,13.27
2022-12-14T17:17:51.584Z,14.00
2022-12-14T17:20:30.584Z,14.47
2022-12-14T17:23:00.164Z,14.13
2022-12-14T17:25:28.530Z,14.63
2022-12-14T17:27:58.085Z,15.03
2022-12-14T17:30:29.413Z,13.93
2022-12-14T17:32:57.971Z,13.20
2022-12-14T17:35:30.084Z,13.90
2022-12-14T17:37:56.808Z,14.10
2022-12-14T17:40:23.866Z,13.43
2022-12-14T17:42:53.956Z,13.73
2022-12-14T17:45:31.746Z,13.67
2022-12-14T17:47:58.785Z,12.80
2022-12-14T17:50:26.160Z,14.85
2022-12-14T17:52:55.116Z,13.90
2022-12-14T17:55:28.662Z,12.80
2022-12-14T17:57:56.544Z,12.97
2022-12-14T18:00:44.982Z,13.20
2022-12-14T18:03:15.280Z,13.00
2022-12-14T18:05:48.862Z,12.30
2022-12-14T18:08:20.134Z,13.37
2022-12-14T18:10:49.618Z,12.23
2022-12-14T18:13:16.338Z,12.83
2022-12-14T18:15:51.296Z,12.10
2022-12-14T18:18:25.074Z,12.53
2022-12-14T18:20:55.833Z,12.80
2022-12-14T18:23:28.055Z,12.57
2022-12-14T18:26:02.560Z,12.70
2022-12-14T18:28:29.333Z,11.93
2022-12-14T18:30:58.941Z,13.57
2022-12-14T18:33:27.259Z,12.20
2022-12-14T18:35:55.865Z,11.43
2022-12-14T18:38:24.201Z,10.93
2022-12-14T18:40:55.840Z,12.17
2022-12-14T18:43:24.900Z,11.80
2022-12-14T18:45:54.915Z,10.90
2022-12-14T18:48:23.406Z,11.13
2022-12-14T18:50:50.969Z,10.90
2022-12-14T18:53:19.364Z,10.97
2022-12-14T18:55:49.060Z,11.33
2022-12-14T18:58:23.927Z,12.38
2022-12-14T19:00:55.352Z,10.70
2022-12-14T19:03:25.690Z,12.10
2022-12-14T19:06:34.728Z,11.23
2022-12-14T19:08:53.306Z,10.70
2022-12-14T19:11:33.589Z,11.57
2022-12-14T19:14:01.121Z,10.70
2022-12-14T19:16:28.483Z,11.60
2022-12-14T19:18:55.331Z,11.50
2022-12-14T19:21:26.090Z,10.67
2022-12-14T19:23:52.776Z,10.10
2022-12-14T19:26:19.485Z,11.10
2022-12-14T19:28:51.077Z,10.50
2022-12-14T19:31:19.917Z,10.37
2022-12-14T19:33:51.296Z,10.50
2022-12-14T19:36:20.456Z,10.83
2022-12-14T19:38:49.681Z,11.18
2022-12-14T19:41:20.616Z,10.43
2022-12-14T19:43:47.902Z,9.87
2022-12-14T19:46:15.753Z,10.57
2022-12-14T19:48:42.729Z,10.10
2022-12-14T19:51:15.956Z,10.00
2022-12-14T19:53:43.940Z,11.00
2022-12-14T19:56:13.265Z,10.47
2022-12-14T19:58:40.200Z,10.63
2022-12-14T20:01:12.665Z,10.17
2022-12-14T20:03:42.756Z,9.83
2022-12-14T20:06:09.639Z,10.17
2022-12-14T20:08:37.302Z,10.07
2022-12-14T20:11:09.013Z,10.13
2022-12-14T20:13:38.026Z,9.73
2022-12-14T20:16:05.119Z,10.43
2022-12-14T20:18:32.019Z,9.57
2022-12-14T20:21:07.271Z,11.40
2022-12-14T20:23:37.142Z,10.23
2022-12-14T20:26:06.713Z,9.90
2022-12-14T20:28:33.503Z,9.00
2022-12-14T20:31:01.211Z,9.83
2022-12-14T20:33:31.092Z,10.27
2022-12-14T20:36:02.812Z,9.43
2022-12-14T20:38:29.573Z,9.17
2022-12-14T20:41:03.186Z,9.27
2022-12-14T20:43:35.889Z,9.37
2022-12-14T20:46:02.638Z,10.77
2022-12-14T20:48:29.719Z,9.57
2022-12-14T20:53:32.504Z,9.57
2022-12-14T20:56:04.334Z,9.43
2022-12-14T20:58:36.324Z,9.90
2022-12-14T21:01:13.370Z,9.60
2022-12-14T21:03:42.550Z,9.80
2022-12-14T21:06:09.558Z,9.60
2022-12-14T21:08:56.197Z,9.37
2022-12-14T21:11:41.654Z,9.53
2022-12-14T21:14:10.905Z,10.13
2022-12-14T21:16:40.752Z,9.00
2022-12-14T21:19:07.725Z,9.30
2022-12-14T21:21:34.657Z,9.33
2022-12-14T21:24:01.323Z,8.97
2022-12-14T21:26:28.259Z,9.40
2022-12-14T21:28:55.458Z,9.27
2022-12-14T21:31:22.632Z,9.60
2022-12-14T21:33:50.107Z,9.80
2022-12-14T21:36:16.854Z,9.33
2022-12-14T21:38:43.525Z,9.87
2022-12-14T21:41:30.029Z,9.97
2022-12-14T21:44:00.668Z,10.75
2022-12-14T21:46:29.498Z,10.27
2022-12-14T21:48:58.898Z,10.60
2022-12-14T21:51:28.540Z,10.07
2022-12-14T21:53:59.226Z,10.30
2022-12-14T21:56:50.474Z,10.13
2022-12-14T21:59:24.872Z,10.10
2022-12-14T22:01:52.920Z,10.70
2022-12-14T22:04:22.865Z,10.20
2022-12-14T22:06:49.680Z,10.73
2022-12-14T22:09:17.578Z,10.27
2022-12-14T22:11:47.247Z,11.63
2022-12-14T22:14:22.665Z,10.57
2022-12-14T22:16:50.175Z,10.77
2022-12-14T22:19:24.478Z,11.43
2022-12-14T22:21:52.584Z,11.30
2022-12-14T22:24:23.218Z,12.43
2022-12-14T22:26:50.814Z,12.10
2022-12-14T22:29:18.866Z,11.17
2022-12-14T22:31:50.032Z,11.33
2022-12-14T22:34:20.526Z,11.60
2022-12-14T22:36:49.338Z,11.77
2022-12-14T22:39:16.971Z,11.73
2022-12-14T22:41:43.779Z,10.60
2022-12-14T22:44:12.503Z,10.87
2022-12-14T22:46:42.103Z,11.17
2022-12-14T22:49:18.952Z,9.93
2022-12-14T22:51:48.198Z,11.17
2022-12-14T22:54:27.072Z,11.07
2022-12-14T22:57:00.930Z,11.30
2022-12-14T22:59:32.921Z,11.13
2022-12-14T23:02:02.693Z,11.07
2022-12-14T23:04:32.079Z,10.50
2022-12-14T23:06:58.826Z,11.93
2022-12-14T23:09:44.460Z,10.40
2022-12-14T23:12:29.816Z,9.97
2022-12-14T23:15:15.266Z,10.73
2022-12-14T23:18:03.163Z,10.60
2022-12-14T23:20:50.400Z,11.60
2022-12-14T23:23:35.798Z,11.23
2022-12-14T23:26:22.712Z,10.53
2022-12-14T23:29:08.146Z,10.57
2022-12-14T23:31:53.680Z,10.73
2022-12-14T23:34:39.063Z,10.07
2022-12-14T23:37:24.449Z,11.17
2022-12-14T23:40:09.886Z,10.27
2022-12-14T23:42:57.269Z,10.43
2022-12-14T23:45:42.513Z,10.83
2022-12-14T23:48:30.496Z,13.10
2022-12-14T23:51:15.883Z,11.53
2022-12-14T23:54:01.366Z,10.97
2022-12-14T23:56:46.702Z,11.20
2022-12-14T23:59:32.862Z,11.60
